Time;durP1;ratioP1;P1;durP2;ratioP2;P2;SDS_P1;SDS_P2;PMS_P1;PMS_P2;Temp;Humidity;BMP_temperature;BMP_pressure;BME280_temperature;BME280_humidity;BME280_pressure;Samples;Min_cycle;Max_cycle;Signal;HPM_P1;HPM_P2
2023/06/23 00:02:13;;;;;;;1.17;1.07;;;;;;;;;;5063718;28;20927;-78
2023/06/23 00:04:40;;;;;;;0.80;0.80;;;;;;;;;;5055960;28;20435;-77
2023/06/23 00:07:06;;;;;;;0.80;0.80;;;;;;;;;;5057610;28;20491;-77
2023/06/23 00:09:33;;;;;;;0.77;0.77;;;;;;;;;;5061973;28;20436;-78
2023/06/23 00:12:00;;;;;;;0.70;0.70;;;;;;;;;;5073589;28;20434;-78
2023/06/23 00:14:26;;;;;;;0.70;0.70;;;;;;;;;;5068173;28;20446;-77
2023/06/23 00:16:54;;;;;;;0.80;0.80;;;;;;;;;;5052782;28;20852;-76
2023/06/23 00:19:21;;;;;;;0.77;0.77;;;;;;;;;;5070361;28;20447;-76
2023/06/23 00:21:47;;;;;;;0.80;0.80;;;;;;;;;;5068179;28;21040;-76
2023/06/23 00:24:14;;;;;;;1.53;1.43;;;;;;;;;;5064592;28;20437;-76
2023/06/23 00:26:40;;;;;;;0.70;0.70;;;;;;;;;;5066646;28;20591;-78
2023/06/23 00:29:07;;;;;;;4.13;1.37;;;;;;;;;;5070489;28;20459;-76
2023/06/23 00:31:33;;;;;;;0.60;0.60;;;;;;;;;;5070917;28;20437;-75
2023/06/23 00:34:02;;;;;;;0.80;0.80;;;;;;;;;;5067402;28;20473;-78
2023/06/23 00:36:30;;;;;;;1.73;1.63;;;;;;;;;;5052728;28;20545;-75
2023/06/23 00:38:58;;;;;;;0.70;0.70;;;;;;;;;;5068581;28;20465;-76
2023/06/23 00:41:27;;;;;;;0.70;0.70;;;;;;;;;;5063034;28;20442;-75
2023/06/23 00:43:59;;;;;;;0.70;0.67;;;;;;;;;;5071536;28;20974;-75
2023/06/23 00:46:26;;;;;;;0.70;0.70;;;;;;;;;;5072846;28;20491;-78
2023/06/23 00:48:53;;;;;;;0.70;0.70;;;;;;;;;;5066414;28;20441;-75
2023/06/23 00:51:22;;;;;;;1.50;1.40;;;;;;;;;;5044084;28;20456;-77
2023/06/23 00:53:48;;;;;;;0.90;0.90;;;;;;;;;;5054262;28;20466;-75
2023/06/23 00:56:15;;;;;;;2.70;1.27;;;;;;;;;;5056741;28;20443;-77
2023/06/23 00:58:42;;;;;;;1.33;1.27;;;;;;;;;;5054139;28;20451;-77
2023/06/23 01:01:10;;;;;;;0.70;0.70;;;;;;;;;;5066651;28;20935;-76
2023/06/23 01:03:37;;;;;;;0.70;0.70;;;;;;;;;;5052377;28;20446;-75
2023/06/23 01:06:09;;;;;;;0.70;0.70;;;;;;;;;;5064379;28;20519;-76
2023/06/23 01:08:42;;;;;;;0.70;0.70;;;;;;;;;;5062345;28;20457;-77
2023/06/23 01:11:11;;;;;;;0.70;0.70;;;;;;;;;;5069639;28;20475;-75
2023/06/23 01:13:38;;;;;;;0.70;0.70;;;;;;;;;;5065659;28;20441;-76
2023/06/23 01:16:07;;;;;;;1.73;1.00;;;;;;;;;;5068481;28;21007;-77
2023/06/23 01:18:38;;;;;;;0.70;0.70;;;;;;;;;;5046017;28;20455;-76
2023/06/23 01:21:08;;;;;;;1.20;0.83;;;;;;;;;;5053856;28;20787;-75
2023/06/23 01:23:53;;;;;;;1.07;0.97;;;;;;;;;;5051889;28;20497;-78
2023/06/23 01:26:30;;;;;;;1.53;1.10;;;;;;;;;;5053388;28;20457;-76
2023/06/23 01:29:00;;;;;;;0.80;0.80;;;;;;;;;;5043463;28;20813;-76
2023/06/23 01:31:31;;;;;;;1.83;1.73;;;;;;;;;;5045601;28;20475;-77
2023/06/23 01:34:00;;;;;;;1.00;1.00;;;;;;;;;;5068645;28;20891;-75
2023/06/23 01:36:29;;;;;;;0.70;0.70;;;;;;;;;;5063051;28;20545;-76
2023/06/23 01:39:00;;;;;;;0.60;0.60;;;;;;;;;;5054117;28;20523;-78
2023/06/23 01:41:28;;;;;;;0.70;0.70;;;;;;;;;;5068913;28;20437;-78
2023/06/23 01:43:55;;;;;;;0.73;0.73;;;;;;;;;;5064941;28;20477;-77
2023/06/23 01:46:27;;;;;;;0.70;0.70;;;;;;;;;;5048796;28;20478;-78
2023/06/23 01:48:56;;;;;;;0.70;0.70;;;;;;;;;;5067305;28;20982;-76
2023/06/23 01:51:24;;;;;;;0.70;0.70;;;;;;;;;;5067909;28;20445;-76
2023/06/23 01:53:51;;;;;;;0.97;0.97;;;;;;;;;;5065265;28;20434;-75
2023/06/23 01:56:19;;;;;;;0.70;0.70;;;;;;;;;;5061152;28;20439;-77
2023/06/23 01:58:47;;;;;;;0.67;0.60;;;;;;;;;;5064790;28;20450;-77
2023/06/23 02:01:15;;;;;;;0.70;0.70;;;;;;;;;;5069936;28;20450;-75
2023/06/23 02:03:43;;;;;;;1.07;1.03;;;;;;;;;;5065013;28;20446;-78
2023/06/23 02:06:13;;;;;;;0.67;0.60;;;;;;;;;;5062359;28;20451;-77
2023/06/23 02:08:40;;;;;;;0.70;0.60;;;;;;;;;;5061025;28;21004;-76
2023/06/23 02:11:08;;;;;;;1.03;0.97;;;;;;;;;;5059055;28;20452;-79
2023/06/23 02:13:36;;;;;;;0.70;0.67;;;;;;;;;;5064557;28;20488;-76
2023/06/23 02:16:04;;;;;;;0.70;0.60;;;;;;;;;;5070242;28;21025;-75
2023/06/23 02:18:35;;;;;;;0.70;0.60;;;;;;;;;;5072368;28;20488;-75
2023/06/23 02:21:04;;;;;;;0.70;0.70;;;;;;;;;;5066071;28;20447;-76
2023/06/23 02:23:31;;;;;;;1.03;0.93;;;;;;;;;;5070622;28;20493;-76
2023/06/23 02:26:00;;;;;;;0.70;0.70;;;;;;;;;;5068696;28;20500;-75
2023/06/23 02:28:27;;;;;;;0.70;0.70;;;;;;;;;;5051465;28;20467;-75
2023/06/23 02:30:55;;;;;;;0.70;0.70;;;;;;;;;;5050487;28;21264;-76
2023/06/23 02:33:22;;;;;;;0.70;0.60;;;;;;;;;;5064195;28;20480;-77
2023/06/23 02:35:49;;;;;;;0.70;0.60;;;;;;;;;;5059220;28;20471;-78
2023/06/23 02:38:21;;;;;;;2.17;1.40;;;;;;;;;;5054891;28;20991;-75
2023/06/23 02:40:51;;;;;;;0.80;0.80;;;;;;;;;;5061909;28;20446;-76
2023/06/23 02:43:22;;;;;;;0.63;0.63;;;;;;;;;;5053775;28;20552;-75
2023/06/23 02:45:50;;;;;;;0.83;0.83;;;;;;;;;;5068571;28;20482;-74
2023/06/23 02:48:18;;;;;;;0.77;0.77;;;;;;;;;;5066993;28;20556;-76
2023/06/23 02:50:45;;;;;;;0.80;0.80;;;;;;;;;;5054552;28;20460;-76
2023/06/23 02:53:16;;;;;;;0.90;0.90;;;;;;;;;;5058888;28;20452;-75
2023/06/23 02:55:46;;;;;;;0.70;0.70;;;;;;;;;;5049184;28;20451;-75
2023/06/23 02:58:14;;;;;;;0.70;0.70;;;;;;;;;;5042318;28;20949;-76
2023/06/23 03:00:42;;;;;;;0.70;0.70;;;;;;;;;;5067999;28;20446;-76
2023/06/23 03:03:12;;;;;;;0.87;0.83;;;;;;;;;;5063018;28;20967;-76
2023/06/23 03:05:39;;;;;;;0.70;0.70;;;;;;;;;;5060789;28;20556;-76
2023/06/23 03:08:07;;;;;;;0.80;0.80;;;;;;;;;;5057543;28;20477;-75
2023/06/23 03:10:34;;;;;;;0.70;0.70;;;;;;;;;;5062561;28;20467;-77
2023/06/23 03:13:02;;;;;;;1.03;0.97;;;;;;;;;;5051391;28;20536;-77
2023/06/23 03:15:29;;;;;;;0.70;0.70;;;;;;;;;;5064737;28;20432;-76
2023/06/23 03:17:59;;;;;;;0.80;0.80;;;;;;;;;;5067217;28;20430;-77
2023/06/23 03:20:28;;;;;;;0.70;0.70;;;;;;;;;;5059055;28;20446;-81
2023/06/23 03:23:00;;;;;;;0.70;0.70;;;;;;;;;;5059576;28;20577;-79
2023/06/23 03:25:27;;;;;;;0.70;0.70;;;;;;;;;;5063275;28;20556;-78
2023/06/23 03:27:55;;;;;;;0.90;0.90;;;;;;;;;;5065737;28;21047;-79
2023/06/23 03:30:24;;;;;;;0.80;0.80;;;;;;;;;;5051586;28;20451;-80
2023/06/23 03:32:51;;;;;;;0.77;0.77;;;;;;;;;;5062409;28;20577;-80
2023/06/23 03:35:20;;;;;;;1.00;1.00;;;;;;;;;;5058945;28;21214;-79
2023/06/23 03:37:48;;;;;;;0.73;0.73;;;;;;;;;;5064850;28;21007;-80
2023/06/23 03:40:16;;;;;;;1.00;1.00;;;;;;;;;;5061722;28;20465;-80
2023/06/23 03:42:46;;;;;;;0.70;0.67;;;;;;;;;;5060147;28;20518;-78
2023/06/23 03:45:13;;;;;;;0.70;0.70;;;;;;;;;;5065288;28;20455;-79
2023/06/23 03:47:42;;;;;;;0.70;0.70;;;;;;;;;;5064102;28;20885;-80
2023/06/23 03:50:10;;;;;;;0.87;0.87;;;;;;;;;;5065425;28;20460;-80
2023/06/23 03:52:38;;;;;;;3.80;2.60;;;;;;;;;;5064694;28;20602;-79
2023/06/23 03:55:06;;;;;;;0.73;0.73;;;;;;;;;;5057733;28;20462;-79
2023/06/23 03:57:34;;;;;;;1.23;1.13;;;;;;;;;;5059358;28;20447;-81
2023/06/23 04:00:03;;;;;;;0.80;0.80;;;;;;;;;;5060963;28;20496;-80
2023/06/23 04:02:39;;;;;;;1.57;1.20;;;;;;;;;;5058158;28;20470;-80
2023/06/23 04:05:12;;;;;;;1.33;1.23;;;;;;;;;;5061713;28;20435;-79
2023/06/23 04:07:40;;;;;;;1.60;1.27;;;;;;;;;;5049451;28;20547;-78
2023/06/23 04:10:08;;;;;;;1.57;1.00;;;;;;;;;;5061949;28;20788;-79
2023/06/23 04:12:35;;;;;;;0.80;0.80;;;;;;;;;;5051249;28;20496;-80
2023/06/23 04:15:03;;;;;;;0.70;0.60;;;;;;;;;;5051832;28;20455;-78
2023/06/23 04:17:31;;;;;;;0.70;0.70;;;;;;;;;;5063375;28;20439;-78
2023/06/23 04:19:59;;;;;;;1.07;1.03;;;;;;;;;;5057971;28;20435;-80
2023/06/23 04:22:29;;;;;;;0.70;0.60;;;;;;;;;;5063441;28;20491;-80
2023/06/23 04:24:57;;;;;;;2.20;1.77;;;;;;;;;;5060520;28;20528;-81
2023/06/23 04:27:25;;;;;;;0.77;0.77;;;;;;;;;;5061092;28;20793;-81
2023/06/23 04:29:53;;;;;;;0.70;0.70;;;;;;;;;;5059077;28;20462;-80
2023/06/23 04:32:21;;;;;;;0.80;0.80;;;;;;;;;;5066850;28;20439;-80
2023/06/23 04:34:49;;;;;;;0.70;0.70;;;;;;;;;;5063935;28;20445;-81
2023/06/23 04:37:19;;;;;;;0.80;0.80;;;;;;;;;;5062783;28;20981;-79
2023/06/23 04:39:49;;;;;;;1.13;1.00;;;;;;;;;;5048646;28;20433;-81
2023/06/23 04:42:19;;;;;;;1.30;1.20;;;;;;;;;;5066128;28;20442;-80
2023/06/23 04:44:50;;;;;;;1.07;1.00;;;;;;;;;;5064157;28;20447;-81
2023/06/23 04:47:19;;;;;;;0.80;0.80;;;;;;;;;;5061650;28;20471;-79
2023/06/23 04:49:48;;;;;;;0.70;0.60;;;;;;;;;;5059827;28;20439;-81
2023/06/23 04:52:16;;;;;;;0.63;0.60;;;;;;;;;;5066488;28;20771;-81
2023/06/23 04:54:46;;;;;;;1.00;1.00;;;;;;;;;;5060515;28;20531;-79
2023/06/23 04:57:15;;;;;;;0.70;0.60;;;;;;;;;;5063331;28;20450;-80
2023/06/23 04:59:46;;;;;;;0.80;0.80;;;;;;;;;;5063958;28;20917;-82
2023/06/23 05:02:13;;;;;;;0.77;0.77;;;;;;;;;;5069881;28;20510;-81
2023/06/23 05:04:41;;;;;;;0.87;0.83;;;;;;;;;;5063556;28;20431;-79
2023/06/23 05:07:08;;;;;;;6.23;2.47;;;;;;;;;;5054835;28;20458;-81
2023/06/23 05:09:35;;;;;;;0.80;0.80;;;;;;;;;;5058714;28;20472;-81
2023/06/23 05:12:05;;;;;;;0.90;0.90;;;;;;;;;;5067926;28;20980;-80
2023/06/23 05:14:33;;;;;;;1.17;1.17;;;;;;;;;;5067681;28;20487;-81
2023/06/23 05:17:01;;;;;;;0.80;0.80;;;;;;;;;;5064524;28;20988;-82
2023/06/23 05:19:29;;;;;;;0.70;0.70;;;;;;;;;;5072081;28;20840;-80
2023/06/23 05:21:57;;;;;;;1.40;1.30;;;;;;;;;;5066371;28;20468;-81
2023/06/23 05:24:25;;;;;;;2.77;2.53;;;;;;;;;;5061666;28;20533;-80
2023/06/23 05:26:53;;;;;;;0.97;0.97;;;;;;;;;;5061152;28;20534;-81
2023/06/23 05:29:20;;;;;;;0.73;0.73;;;;;;;;;;5053981;28;20481;-80
2023/06/23 05:31:49;;;;;;;1.17;1.07;;;;;;;;;;5065926;28;20454;-81
2023/06/23 05:34:17;;;;;;;0.90;0.90;;;;;;;;;;5062869;28;20445;-80
2023/06/23 05:36:45;;;;;;;0.80;0.80;;;;;;;;;;5058466;28;21071;-80
2023/06/23 05:39:12;;;;;;;0.70;0.70;;;;;;;;;;5065036;28;20451;-81
2023/06/23 05:41:40;;;;;;;0.90;0.90;;;;;;;;;;5067514;28;20526;-81
2023/06/23 05:44:06;;;;;;;1.23;1.20;;;;;;;;;;5062890;28;20435;-81
2023/06/23 05:46:34;;;;;;;8.13;1.83;;;;;;;;;;5068314;28;20444;-80
2023/06/23 05:49:08;;;;;;;1.47;1.37;;;;;;;;;;5064610;28;20467;-82
2023/06/23 05:51:37;;;;;;;0.70;0.70;;;;;;;;;;5067451;28;20512;-82
2023/06/23 05:54:08;;;;;;;1.47;1.37;;;;;;;;;;5062009;28;20441;-81
2023/06/23 05:56:36;;;;;;;1.00;0.97;;;;;;;;;;5058238;28;20433;-83
2023/06/23 05:59:11;;;;;;;0.80;0.80;;;;;;;;;;5064078;28;20448;-82
2023/06/23 06:01:39;;;;;;;2.67;2.07;;;;;;;;;;5065454;28;20522;-82
2023/06/23 06:04:10;;;;;;;1.13;0.90;;;;;;;;;;5065156;28;20841;-82
2023/06/23 06:06:37;;;;;;;0.70;0.70;;;;;;;;;;5067898;28;20475;-80
2023/06/23 06:09:04;;;;;;;0.70;0.70;;;;;;;;;;5063036;28;20470;-81
2023/06/23 06:11:32;;;;;;;0.70;0.70;;;;;;;;;;5068637;28;20447;-81
2023/06/23 06:14:00;;;;;;;0.80;0.80;;;;;;;;;;5065020;28;20798;-80
2023/06/23 06:16:28;;;;;;;0.77;0.77;;;;;;;;;;5070951;28;20468;-80
2023/06/23 06:18:57;;;;;;;0.80;0.77;;;;;;;;;;5064998;28;20444;-80
2023/06/23 06:21:25;;;;;;;0.80;0.80;;;;;;;;;;5070628;28;20465;-80
2023/06/23 06:23:53;;;;;;;0.73;0.73;;;;;;;;;;5060646;28;20459;-80
2023/06/23 06:26:20;;;;;;;1.40;1.30;;;;;;;;;;5070935;28;20446;-80
2023/06/23 06:28:49;;;;;;;1.77;1.20;;;;;;;;;;5058940;28;20471;-80
2023/06/23 06:31:16;;;;;;;0.80;0.80;;;;;;;;;;5060838;28;20619;-82
2023/06/23 06:33:44;;;;;;;1.53;1.27;;;;;;;;;;5063314;28;20486;-80
2023/06/23 06:36:11;;;;;;;0.70;0.60;;;;;;;;;;5063245;28;20511;-81
2023/06/23 06:38:40;;;;;;;0.80;0.80;;;;;;;;;;5061066;28;20448;-82
2023/06/23 06:41:09;;;;;;;1.20;1.10;;;;;;;;;;5066187;28;20454;-81
2023/06/23 06:43:36;;;;;;;1.50;1.23;;;;;;;;;;5062545;28;20889;-80
2023/06/23 06:46:04;;;;;;;3.00;2.80;;;;;;;;;;5074661;28;20428;-79
2023/06/23 06:48:32;;;;;;;0.70;0.60;;;;;;;;;;5067862;28;20842;-81
2023/06/23 06:51:03;;;;;;;1.30;1.20;;;;;;;;;;5054134;28;20455;-81
2023/06/23 06:53:31;;;;;;;2.50;2.30;;;;;;;;;;5071015;28;20464;-78
2023/06/23 06:55:59;;;;;;;4.80;2.07;;;;;;;;;;5061970;28;20447;-80
2023/06/23 06:58:28;;;;;;;1.20;0.80;;;;;;;;;;5069779;28;20478;-81
2023/06/23 07:00:54;;;;;;;0.70;0.70;;;;;;;;;;5063448;28;20541;-82
2023/06/23 07:03:22;;;;;;;1.43;1.00;;;;;;;;;;5071384;28;20446;-80
2023/06/23 07:05:49;;;;;;;0.70;0.70;;;;;;;;;;5067309;28;20432;-81
2023/06/23 07:08:16;;;;;;;0.80;0.77;;;;;;;;;;5063494;28;20537;-82
2023/06/23 07:10:43;;;;;;;0.80;0.80;;;;;;;;;;5061903;28;20414;-79
2023/06/23 07:13:12;;;;;;;0.90;0.90;;;;;;;;;;5065190;28;20446;-81
2023/06/23 07:15:38;;;;;;;0.70;0.60;;;;;;;;;;5048971;28;20467;-80
2023/06/23 07:18:05;;;;;;;0.87;0.83;;;;;;;;;;5065028;28;20490;-81
2023/06/23 07:20:32;;;;;;;0.77;0.70;;;;;;;;;;5057357;28;20837;-80
2023/06/23 07:22:59;;;;;;;2.30;1.73;;;;;;;;;;5065171;28;20478;-80
2023/06/23 07:25:27;;;;;;;1.17;1.07;;;;;;;;;;5071083;28;20411;-80
2023/06/23 07:27:54;;;;;;;4.13;1.73;;;;;;;;;;5065745;28;20464;-81
2023/06/23 07:30:23;;;;;;;1.10;1.00;;;;;;;;;;5061266;28;20469;-80
2023/06/23 07:32:50;;;;;;;1.30;0.90;;;;;;;;;;5060551;28;20478;-81
2023/06/23 07:35:17;;;;;;;1.10;1.00;;;;;;;;;;5065157;28;20470;-80
2023/06/23 07:37:43;;;;;;;0.80;0.80;;;;;;;;;;5063640;28;20442;-81
2023/06/23 07:40:10;;;;;;;1.20;1.10;;;;;;;;;;5042151;28;20542;-81
2023/06/23 07:42:37;;;;;;;2.60;1.30;;;;;;;;;;5063435;28;20426;-81
2023/06/23 07:45:04;;;;;;;7.27;3.43;;;;;;;;;;5064477;28;20550;-80
2023/06/23 07:47:33;;;;;;;0.80;0.80;;;;;;;;;;5063048;28;20439;-82
2023/06/23 07:50:00;;;;;;;0.80;0.80;;;;;;;;;;5061424;28;20485;-81
2023/06/23 07:52:27;;;;;;;0.80;0.80;;;;;;;;;;5043012;28;20948;-80
2023/06/23 07:54:55;;;;;;;0.90;0.90;;;;;;;;;;5059549;28;20427;-80
2023/06/23 07:57:22;;;;;;;1.13;1.03;;;;;;;;;;5057779;28;20422;-80
2023/06/23 07:59:49;;;;;;;0.80;0.70;;;;;;;;;;5061720;28;20411;-79
2023/06/23 08:02:16;;;;;;;2.33;1.77;;;;;;;;;;5067183;28;20418;-78
2023/06/23 08:04:44;;;;;;;0.80;0.80;;;;;;;;;;5066271;28;20417;-77
2023/06/23 08:07:11;;;;;;;0.90;0.87;;;;;;;;;;5063970;28;20993;-77
2023/06/23 08:09:38;;;;;;;0.80;0.80;;;;;;;;;;5050315;28;20562;-79
2023/06/23 08:12:07;;;;;;;0.80;0.70;;;;;;;;;;5064640;28;20430;-77
2023/06/23 08:14:34;;;;;;;0.90;0.90;;;;;;;;;;5061667;28;20428;-80
2023/06/23 08:17:01;;;;;;;2.80;2.60;;;;;;;;;;5062339;28;20433;-77
2023/06/23 08:19:30;;;;;;;0.70;0.70;;;;;;;;;;5062209;28;20462;-79
2023/06/23 08:21:58;;;;;;;1.00;1.00;;;;;;;;;;5064351;28;20447;-78
2023/06/23 08:24:25;;;;;;;1.27;1.17;;;;;;;;;;5066267;28;20442;-80
2023/06/23 08:26:51;;;;;;;0.90;0.90;;;;;;;;;;5068785;28;20760;-79
2023/06/23 08:29:19;;;;;;;0.70;0.70;;;;;;;;;;5052456;28;20446;-77
2023/06/23 08:31:45;;;;;;;0.93;0.93;;;;;;;;;;5065586;28;20496;-79
2023/06/23 08:34:13;;;;;;;1.00;0.90;;;;;;;;;;5064631;28;20484;-78
2023/06/23 08:36:39;;;;;;;0.90;0.90;;;;;;;;;;5064733;28;20405;-77
2023/06/23 08:39:09;;;;;;;0.80;0.70;;;;;;;;;;5064240;28;20410;-77
2023/06/23 08:41:38;;;;;;;0.83;0.83;;;;;;;;;;5055385;28;20816;-79
2023/06/23 08:44:06;;;;;;;0.80;0.80;;;;;;;;;;5059069;28;20414;-78
2023/06/23 08:46:35;;;;;;;0.70;0.70;;;;;;;;;;5069538;28;20597;-81
2023/06/23 08:49:20;;;;;;;0.80;0.80;;;;;;;;;;5065120;28;20471;-75
2023/06/23 08:51:48;;;;;;;0.70;0.70;;;;;;;;;;5048746;28;20468;-75
2023/06/23 08:54:16;;;;;;;1.47;1.37;;;;;;;;;;5063715;28;20454;-76
2023/06/23 08:56:44;;;;;;;0.80;0.80;;;;;;;;;;5063058;28;20448;-74
2023/06/23 08:59:12;;;;;;;1.17;1.07;;;;;;;;;;5068448;28;20504;-78
2023/06/23 09:01:39;;;;;;;0.80;0.80;;;;;;;;;;5078577;28;20440;-76
2023/06/23 09:04:06;;;;;;;0.80;0.70;;;;;;;;;;5062285;28;20431;-75
2023/06/23 09:06:36;;;;;;;1.30;1.20;;;;;;;;;;5067411;28;20514;-77
2023/06/23 09:09:02;;;;;;;1.53;0.93;;;;;;;;;;5069871;28;20448;-79
2023/06/23 09:11:31;;;;;;;0.80;0.70;;;;;;;;;;5062894;28;20447;-80
2023/06/23 09:13:58;;;;;;;0.70;0.70;;;;;;;;;;5051875;28;20449;-75
2023/06/23 09:16:26;;;;;;;1.33;1.23;;;;;;;;;;5065163;28;20444;-73
2023/06/23 09:18:53;;;;;;;0.80;0.80;;;;;;;;;;5050030;28;20492;-77
2023/06/23 09:21:20;;;;;;;0.90;0.83;;;;;;;;;;5068054;28;20523;-79
2023/06/23 09:23:57;;;;;;;0.80;0.80;;;;;;;;;;5061529;28;20455;-76
2023/06/23 09:26:25;;;;;;;0.90;0.87;;;;;;;;;;5054591;28;20969;-75
2023/06/23 09:29:12;;;;;;;1.00;0.97;;;;;;;;;;5061940;28;20436;-75
2023/06/23 09:31:41;;;;;;;0.80;0.70;;;;;;;;;;5059096;28;20436;-78
2023/06/23 09:34:09;;;;;;;0.70;0.60;;;;;;;;;;5069630;28;20492;-76
2023/06/23 09:36:36;;;;;;;1.37;1.27;;;;;;;;;;5066628;28;20470;-76
2023/06/23 09:39:03;;;;;;;0.80;0.70;;;;;;;;;;5058058;28;20442;-77
2023/06/23 09:41:31;;;;;;;0.70;0.60;;;;;;;;;;5077741;28;20435;-76
2023/06/23 09:44:19;;;;;;;0.80;0.70;;;;;;;;;;5065647;28;20427;-78
2023/06/23 09:46:59;;;;;;;1.27;0.90;;;;;;;;;;5067997;28;20884;-78
2023/06/23 09:49:27;;;;;;;0.80;0.63;;;;;;;;;;5059514;28;20487;-75
2023/06/23 09:51:54;;;;;;;1.30;1.20;;;;;;;;;;5066138;28;20947;-82
2023/06/23 09:54:32;;;;;;;1.43;1.10;;;;;;;;;;5063843;28;20427;-81
2023/06/23 09:57:04;;;;;;;1.93;0.80;;;;;;;;;;5064292;28;20451;-77
2023/06/23 09:59:33;;;;;;;0.70;0.60;;;;;;;;;;5061255;28;20792;-77
2023/06/23 10:01:59;;;;;;;1.10;0.90;;;;;;;;;;5057853;28;20428;-79
2023/06/23 10:04:30;;;;;;;0.80;0.70;;;;;;;;;;5067059;28;20462;-79
2023/06/23 10:06:58;;;;;;;0.90;0.70;;;;;;;;;;5050062;28;21001;-78
2023/06/23 10:09:25;;;;;;;0.70;0.60;;;;;;;;;;5060708;28;20561;-78
2023/06/23 10:11:52;;;;;;;0.70;0.60;;;;;;;;;;5060139;28;20436;-78
2023/06/23 10:14:20;;;;;;;0.70;0.70;;;;;;;;;;5064002;28;20519;-77
2023/06/23 10:16:53;;;;;;;1.03;0.93;;;;;;;;;;5068466;28;20452;-77
2023/06/23 10:19:20;;;;;;;1.67;1.57;;;;;;;;;;5064826;28;20906;-79
2023/06/23 10:21:47;;;;;;;1.00;0.90;;;;;;;;;;5060709;28;20455;-77
2023/06/23 10:24:17;;;;;;;0.97;0.93;;;;;;;;;;5069742;28;20519;-80
2023/06/23 10:26:45;;;;;;;1.00;0.90;;;;;;;;;;5068517;28;20718;-78
2023/06/23 10:29:13;;;;;;;1.20;1.10;;;;;;;;;;5035607;28;20456;-78
2023/06/23 10:31:41;;;;;;;1.27;1.13;;;;;;;;;;5061729;28;20447;-77
2023/06/23 10:34:11;;;;;;;1.17;1.07;;;;;;;;;;5052940;28;20448;-75
2023/06/23 10:36:40;;;;;;;1.00;0.90;;;;;;;;;;5065089;28;20427;-76
2023/06/23 10:39:08;;;;;;;0.70;0.70;;;;;;;;;;5060013;28;20435;-79
2023/06/23 10:41:35;;;;;;;1.40;1.30;;;;;;;;;;5069232;28;20443;-77
2023/06/23 10:44:03;;;;;;;1.33;1.23;;;;;;;;;;5051691;28;20486;-78
2023/06/23 10:46:30;;;;;;;1.20;1.10;;;;;;;;;;5064682;28;20936;-79
2023/06/23 10:48:58;;;;;;;0.70;0.70;;;;;;;;;;5052521;28;20483;-75
2023/06/23 10:51:28;;;;;;;0.70;0.67;;;;;;;;;;5060052;28;20540;-79
2023/06/23 10:53:57;;;;;;;2.63;2.43;;;;;;;;;;5065001;28;20512;-77
2023/06/23 10:56:30;;;;;;;0.70;0.60;;;;;;;;;;5053863;28;20525;-78
2023/06/23 10:58:58;;;;;;;0.80;0.70;;;;;;;;;;5059774;28;20496;-83
2023/06/23 11:01:26;;;;;;;0.80;0.70;;;;;;;;;;5052692;28;20547;-81
2023/06/23 11:03:56;;;;;;;0.90;0.70;;;;;;;;;;5062135;28;20439;-79
2023/06/23 11:06:25;;;;;;;0.70;0.60;;;;;;;;;;5052665;28;20482;-85
2023/06/23 11:08:55;;;;;;;0.70;0.60;;;;;;;;;;5059403;28;20444;-83
2023/06/23 11:11:29;;;;;;;1.13;1.03;;;;;;;;;;5051232;28;20520;-75
2023/06/23 11:13:56;;;;;;;1.33;1.23;;;;;;;;;;5062109;28;20443;-79
2023/06/23 11:16:26;;;;;;;0.80;0.80;;;;;;;;;;5063895;28;20526;-80
2023/06/23 11:18:55;;;;;;;0.80;0.70;;;;;;;;;;5061969;28;20420;-80
2023/06/23 11:21:30;;;;;;;0.90;0.70;;;;;;;;;;5050723;28;20539;-78
2023/06/23 11:24:08;;;;;;;73.73;64.83;;;;;;;;;;5059108;28;20454;-80
2023/06/23 11:26:35;;;;;;;12.63;9.33;;;;;;;;;;5059779;28;20800;-82
2023/06/23 11:29:11;;;;;;;1.20;1.10;;;;;;;;;;5062809;28;20455;-80
2023/06/23 11:32:00;;;;;;;0.70;0.60;;;;;;;;;;5061704;28;20471;-83
2023/06/23 11:34:27;;;;;;;0.70;0.60;;;;;;;;;;5053059;28;21226;-79
2023/06/23 11:36:55;;;;;;;0.70;0.60;;;;;;;;;;5058293;28;20452;-81
2023/06/23 11:39:24;;;;;;;1.67;0.80;;;;;;;;;;5057917;28;20921;-85
2023/06/23 11:41:51;;;;;;;0.80;0.60;;;;;;;;;;5058447;28;20426;-86
2023/06/23 11:44:20;;;;;;;1.53;1.43;;;;;;;;;;5052187;28;20890;-83
2023/06/23 11:46:50;;;;;;;0.80;0.80;;;;;;;;;;5062364;28;20431;-80
2023/06/23 11:49:18;;;;;;;1.10;1.00;;;;;;;;;;5064005;28;20430;-84
2023/06/23 11:51:45;;;;;;;0.80;0.60;;;;;;;;;;5068014;28;20544;-87
2023/06/23 11:54:12;;;;;;;1.33;0.80;;;;;;;;;;5065567;28;20533;-80
2023/06/23 11:56:41;;;;;;;1.37;1.27;;;;;;;;;;5060819;28;20485;-79
2023/06/23 11:59:09;;;;;;;0.70;0.50;;;;;;;;;;5055950;28;20463;-78
2023/06/23 12:01:36;;;;;;;0.90;0.80;;;;;;;;;;5065751;28;20826;-80
2023/06/23 12:04:05;;;;;;;1.00;0.73;;;;;;;;;;5065487;28;20456;-80
2023/06/23 12:06:35;;;;;;;1.10;1.00;;;;;;;;;;5069141;28;20494;-78
2023/06/23 12:09:03;;;;;;;1.17;1.07;;;;;;;;;;5068370;28;20435;-78
2023/06/23 12:11:30;;;;;;;0.70;0.60;;;;;;;;;;5064203;28;20467;-80
2023/06/23 12:14:02;;;;;;;0.80;0.70;;;;;;;;;;5069555;28;20458;-76
2023/06/23 12:16:33;;;;;;;0.70;0.60;;;;;;;;;;5062160;28;20442;-77
2023/06/23 12:19:00;;;;;;;0.80;0.70;;;;;;;;;;5070271;28;20438;-74
2023/06/23 12:21:27;;;;;;;0.70;0.60;;;;;;;;;;5061856;28;20431;-78
2023/06/23 12:23:56;;;;;;;2.47;1.20;;;;;;;;;;5066943;28;20847;-74
2023/06/23 12:26:23;;;;;;;0.97;0.80;;;;;;;;;;5071045;28;20428;-75
2023/06/23 12:29:07;;;;;;;1.20;1.10;;;;;;;;;;5081089;28;20439;-76
2023/06/23 12:31:35;;;;;;;0.70;0.50;;;;;;;;;;5046289;28;20467;-75
2023/06/23 12:34:02;;;;;;;1.53;1.43;;;;;;;;;;5067980;28;20795;-74
2023/06/23 12:36:29;;;;;;;6.63;3.90;;;;;;;;;;5052675;28;20467;-72
2023/06/23 12:38:57;;;;;;;63.33;49.30;;;;;;;;;;5059557;28;20536;-77
2023/06/23 12:41:24;;;;;;;1.67;1.20;;;;;;;;;;5071264;28;20852;-80
2023/06/23 12:43:52;;;;;;;13.77;12.37;;;;;;;;;;5072098;28;20490;-73
2023/06/23 12:46:21;;;;;;;0.70;0.60;;;;;;;;;;5067220;28;20438;-78
2023/06/23 12:48:49;;;;;;;2.77;2.50;;;;;;;;;;5067302;28;20449;-78
2023/06/23 12:51:16;;;;;;;0.90;0.73;;;;;;;;;;5069391;28;20479;-76
2023/06/23 12:53:43;;;;;;;0.73;0.57;;;;;;;;;;5066073;28;20475;-75
2023/06/23 12:56:11;;;;;;;1.00;0.83;;;;;;;;;;5065084;28;21003;-79
2023/06/23 12:58:38;;;;;;;0.80;0.60;;;;;;;;;;5060258;28;21131;-78
2023/06/23 13:01:05;;;;;;;1.00;0.60;;;;;;;;;;5064873;28;20818;-81
2023/06/23 13:03:32;;;;;;;1.00;0.90;;;;;;;;;;5053429;28;20475;-80
2023/06/23 13:06:00;;;;;;;0.80;0.60;;;;;;;;;;5066521;28;20450;-81
2023/06/23 13:08:27;;;;;;;0.80;0.63;;;;;;;;;;5069117;28;20479;-79
2023/06/23 13:10:55;;;;;;;0.83;0.67;;;;;;;;;;5062303;28;20486;-75
2023/06/23 13:13:23;;;;;;;0.90;0.70;;;;;;;;;;5072075;28;20529;-74
2023/06/23 13:15:51;;;;;;;0.90;0.63;;;;;;;;;;5064095;28;20454;-76
2023/06/23 13:18:18;;;;;;;0.80;0.50;;;;;;;;;;5064056;28;20447;-76
2023/06/23 13:20:46;;;;;;;0.90;0.50;;;;;;;;;;5059606;28;20886;-76
2023/06/23 13:23:14;;;;;;;0.87;0.57;;;;;;;;;;5059566;28;20479;-78
2023/06/23 13:25:41;;;;;;;1.53;0.63;;;;;;;;;;5060264;28;20524;-75
2023/06/23 13:28:08;;;;;;;0.80;0.60;;;;;;;;;;5067103;28;20446;-81
2023/06/23 13:30:35;;;;;;;0.80;0.60;;;;;;;;;;5064406;28;20865;-74
2023/06/23 13:33:02;;;;;;;0.80;0.60;;;;;;;;;;5063810;28;20534;-72
2023/06/23 13:35:29;;;;;;;0.80;0.50;;;;;;;;;;5065362;28;20798;-76
2023/06/23 13:37:58;;;;;;;0.80;0.60;;;;;;;;;;5070045;28;20567;-74
2023/06/23 13:40:26;;;;;;;0.90;0.60;;;;;;;;;;5048905;28;20479;-74
2023/06/23 13:42:53;;;;;;;0.87;0.63;;;;;;;;;;5062877;28;20431;-76
2023/06/23 13:45:20;;;;;;;0.80;0.60;;;;;;;;;;5061086;28;20442;-76
2023/06/23 13:47:47;;;;;;;0.80;0.60;;;;;;;;;;5055292;28;20478;-76
2023/06/23 13:50:17;;;;;;;0.97;0.87;;;;;;;;;;5027414;28;1102719;-77
2023/06/23 13:52:44;;;;;;;1.20;0.90;;;;;;;;;;5052709;28;20923;-78
2023/06/23 13:55:11;;;;;;;0.80;0.73;;;;;;;;;;5052099;28;20444;-80
2023/06/23 13:57:41;;;;;;;0.80;0.60;;;;;;;;;;5061542;28;20462;-80
2023/06/23 14:00:12;;;;;;;0.90;0.80;;;;;;;;;;5060295;28;20432;-79
2023/06/23 14:02:39;;;;;;;0.87;0.70;;;;;;;;;;5070648;28;20443;-78
2023/06/23 14:05:06;;;;;;;1.23;0.70;;;;;;;;;;5061501;28;20460;-74
2023/06/23 14:07:34;;;;;;;0.90;0.60;;;;;;;;;;5062346;28;20955;-73
2023/06/23 14:10:03;;;;;;;0.80;0.60;;;;;;;;;;5064864;28;20431;-75
2023/06/23 14:12:32;;;;;;;0.80;0.60;;;;;;;;;;5069011;28;21105;-77
2023/06/23 14:15:01;;;;;;;0.80;0.60;;;;;;;;;;5060978;28;20436;-74
2023/06/23 14:17:29;;;;;;;1.00;0.87;;;;;;;;;;5063652;28;20535;-75
2023/06/23 14:19:56;;;;;;;1.03;0.70;;;;;;;;;;5066082;28;20446;-75
2023/06/23 14:22:25;;;;;;;0.90;0.70;;;;;;;;;;5052592;28;20896;-75
2023/06/23 14:24:52;;;;;;;0.80;0.60;;;;;;;;;;5062534;28;20454;-82
2023/06/23 14:27:25;;;;;;;1.10;0.70;;;;;;;;;;5051267;28;20447;-84
2023/06/23 14:29:55;;;;;;;0.90;0.60;;;;;;;;;;5067190;28;20989;-81
2023/06/23 14:32:31;;;;;;;0.80;0.50;;;;;;;;;;5063553;28;20948;-81
2023/06/23 14:34:59;;;;;;;1.30;0.73;;;;;;;;;;5061439;28;20444;-80
2023/06/23 14:37:27;;;;;;;0.90;0.70;;;;;;;;;;5046342;28;20476;-85
2023/06/23 14:40:08;;;;;;;0.90;0.70;;;;;;;;;;5058610;28;20430;-83
2023/06/23 14:42:41;;;;;;;1.20;0.90;;;;;;;;;;5066827;28;20453;-78
2023/06/23 14:45:07;;;;;;;0.80;0.60;;;;;;;;;;5070595;28;20755;-84
2023/06/23 14:47:37;;;;;;;0.90;0.60;;;;;;;;;;5067736;28;20542;-79
2023/06/23 14:50:06;;;;;;;1.17;0.90;;;;;;;;;;5060254;28;20435;-83
2023/06/23 14:52:34;;;;;;;0.90;0.60;;;;;;;;;;5070026;28;20532;-79